Time;durP1;ratioP1;P1;durP2;ratioP2;P2;SDS_P1;SDS_P2;PMS_P1;PMS_P2;Temp;Humidity;BMP_temperature;BMP_pressure;BME280_temperature;BME280_humidity;BME280_pressure;Samples;Min_cycle;Max_cycle;Signal;HPM_P1;HPM_P2
2022/10/05 00:35:57;;;;;;;6.90;4.20;;;12.50;99.90;;;;;;5015601;28;20415;-67
2022/10/05 00:38:28;;;;;;;5.07;3.67;;;12.50;99.90;;;;;;5015235;28;20508;-66
2022/10/05 00:41:05;;;;;;;4.70;3.47;;;12.40;99.90;;;;;;5015287;28;20837;-66
2022/10/05 00:43:55;;;;;;;8.40;3.87;;;12.40;99.90;;;;;;5014573;28;20495;-67
2022/10/05 00:46:26;;;;;;;5.07;4.10;;;12.40;99.90;;;;;;5015122;28;20812;-66
2022/10/05 00:49:00;;;;;;;4.43;3.87;;;12.40;99.90;;;;;;5015070;28;20836;-66
2022/10/05 00:51:31;;;;;;;5.37;4.47;;;12.40;99.90;;;;;;5014955;28;20448;-66
2022/10/05 00:54:14;;;;;;;4.53;3.03;;;12.40;99.90;;;;;;5015144;28;20775;-66
2022/10/05 00:56:57;;;;;;;4.43;3.60;;;12.40;99.90;;;;;;5014602;28;20488;-66
2022/10/05 00:59:41;;;;;;;5.00;4.00;;;12.40;99.90;;;;;;5014781;28;20440;-66
2022/10/05 01:02:13;;;;;;;5.47;3.70;;;12.40;99.90;;;;;;5014971;28;20444;-66
2022/10/05 01:04:47;;;;;;;6.30;3.80;;;12.40;99.90;;;;;;5014603;28;20481;-66
2022/10/05 01:07:22;;;;;;;5.40;4.17;;;12.40;99.90;;;;;;5015414;28;20437;-66
2022/10/05 01:09:56;;;;;;;8.60;3.80;;;12.40;99.90;;;;;;5015005;28;20453;-67
2022/10/05 01:12:32;;;;;;;6.67;3.90;;;12.40;99.90;;;;;;5015125;28;20445;-66
2022/10/05 01:15:08;;;;;;;4.83;4.10;;;12.40;99.90;;;;;;5014763;28;20511;-66
2022/10/05 01:17:43;;;;;;;4.40;4.00;;;12.40;99.90;;;;;;5014394;28;20469;-66
2022/10/05 01:20:23;;;;;;;4.10;3.60;;;12.40;99.90;;;;;;5014851;28;20779;-66
2022/10/05 01:23:22;;;;;;;4.23;3.83;;;12.40;99.90;;;;;;5014693;28;20464;-66
2022/10/05 01:26:02;;;;;;;5.03;3.97;;;12.40;99.90;;;;;;5014404;28;20470;-66
2022/10/05 01:28:35;;;;;;;5.77;4.00;;;12.40;99.90;;;;;;5014973;28;20756;-66
2022/10/05 01:31:07;;;;;;;8.00;3.40;;;12.40;99.90;;;;;;5015334;28;20828;-66
2022/10/05 01:33:42;;;;;;;6.13;3.70;;;12.40;99.90;;;;;;5014385;28;20893;-66
2022/10/05 01:36:15;;;;;;;5.63;3.53;;;12.40;99.90;;;;;;5014785;28;20467;-66
2022/10/05 01:38:50;;;;;;;4.03;3.63;;;12.40;99.90;;;;;;5014950;28;20469;-66
2022/10/05 01:41:30;;;;;;;5.90;4.03;;;12.40;99.90;;;;;;5015219;28;20730;-66
2022/10/05 01:44:02;;;;;;;4.97;3.63;;;12.40;99.90;;;;;;5014599;28;20441;-66
2022/10/05 01:46:38;;;;;;;6.67;3.97;;;12.30;99.90;;;;;;5014044;28;20901;-66
2022/10/05 01:49:23;;;;;;;5.07;3.63;;;12.30;99.90;;;;;;5014815;28;20452;-66
2022/10/05 01:51:59;;;;;;;6.60;3.80;;;12.30;99.90;;;;;;5014312;28;20613;-66
2022/10/05 01:54:40;;;;;;;9.07;3.73;;;12.30;99.90;;;;;;5014525;28;20441;-65
2022/10/05 01:57:17;;;;;;;5.00;3.70;;;12.20;99.90;;;;;;5023279;28;20466;-66
2022/10/05 02:00:02;;;;;;;4.73;3.57;;;12.30;99.90;;;;;;5018030;28;20441;-66
2022/10/05 02:02:31;;;;;;;4.53;3.60;;;12.20;99.90;;;;;;5017844;28;20459;-64
2022/10/05 02:05:05;;;;;;;5.60;3.60;;;12.20;99.90;;;;;;5018238;28;20515;-65
2022/10/05 02:07:36;;;;;;;7.30;3.97;;;12.20;99.90;;;;;;5018051;28;20516;-65
2022/10/05 02:10:14;;;;;;;6.03;3.53;;;12.10;99.90;;;;;;5018066;28;20445;-65
2022/10/05 02:12:44;;;;;;;5.47;4.20;;;12.20;99.90;;;;;;5018166;28;20451;-65
2022/10/05 02:15:17;;;;;;;3.43;3.13;;;12.10;99.90;;;;;;5017902;28;20527;-67
2022/10/05 02:17:48;;;;;;;4.03;3.50;;;12.10;99.90;;;;;;5017800;28;20473;-66
2022/10/05 02:20:22;;;;;;;4.63;3.40;;;12.10;99.90;;;;;;5017727;28;20453;-67
2022/10/05 02:22:52;;;;;;;5.30;3.40;;;12.10;99.90;;;;;;5017925;28;20491;-67
2022/10/05 02:25:23;;;;;;;7.87;4.30;;;12.10;99.90;;;;;;5017182;28;20471;-65
2022/10/05 02:27:54;;;;;;;4.23;3.83;;;12.10;99.90;;;;;;5017272;28;20939;-65
2022/10/05 02:30:22;;;;;;;4.70;3.77;;;12.10;99.90;;;;;;5017180;28;20444;-66
2022/10/05 02:32:54;;;;;;;5.77;3.67;;;12.10;99.90;;;;;;5018044;28;20781;-66
2022/10/05 02:35:22;;;;;;;4.20;3.80;;;12.00;99.90;;;;;;5017739;28;20925;-66
2022/10/05 02:38:01;;;;;;;7.03;3.63;;;12.00;99.90;;;;;;5017164;28;20529;-66
2022/10/05 02:40:38;;;;;;;6.67;3.90;;;12.00;99.90;;;;;;5017166;28;20898;-65
2022/10/05 02:43:15;;;;;;;6.20;3.60;;;11.90;99.90;;;;;;5017425;28;20815;-65
2022/10/05 02:45:52;;;;;;;7.77;4.67;;;11.90;99.90;;;;;;5017164;28;20457;-65
2022/10/05 02:48:31;;;;;;;7.00;3.93;;;11.90;99.90;;;;;;5017026;28;20441;-66
2022/10/05 02:51:06;;;;;;;9.00;3.90;;;11.90;99.90;;;;;;5017372;28;20483;-65
2022/10/05 02:53:42;;;;;;;5.60;3.70;;;11.90;99.90;;;;;;5016894;28;20483;-65
2022/10/05 02:56:20;;;;;;;4.20;3.80;;;11.80;99.90;;;;;;5016768;28;20528;-65
2022/10/05 02:58:56;;;;;;;5.33;3.83;;;11.80;99.90;;;;;;5017168;28;20564;-64
2022/10/05 03:01:27;;;;;;;4.93;3.47;;;11.80;99.90;;;;;;5017045;28;20500;-65
2022/10/05 03:04:02;;;;;;;5.70;4.30;;;11.70;99.90;;;;;;5016612;28;20499;-65
2022/10/05 03:06:35;;;;;;;6.70;4.53;;;11.70;99.90;;;;;;5016368;28;20548;-65
2022/10/05 03:09:03;;;;;;;5.93;3.93;;;11.70;99.90;;;;;;5016813;28;20952;-65
2022/10/05 03:11:38;;;;;;;5.97;4.10;;;11.70;99.90;;;;;;5016594;28;20456;-65
2022/10/05 03:14:10;;;;;;;4.97;4.17;;;11.80;99.90;;;;;;5016375;28;20531;-65
2022/10/05 03:16:48;;;;;;;6.03;3.40;;;11.80;99.90;;;;;;5016541;28;20441;-65
2022/10/05 03:19:29;;;;;;;4.37;3.60;;;11.80;99.90;;;;;;5017069;28;20512;-65
2022/10/05 03:22:01;;;;;;;4.53;4.13;;;11.80;99.90;;;;;;5016740;28;20528;-65
2022/10/05 03:24:51;;;;;;;4.77;3.50;;;11.80;99.90;;;;;;5017266;28;20473;-65
2022/10/05 03:27:31;;;;;;;5.17;3.73;;;11.80;99.90;;;;;;5016643;28;20510;-65
2022/10/05 03:30:04;;;;;;;5.20;3.20;;;11.80;99.90;;;;;;5016279;28;20842;-66
2022/10/05 03:32:45;;;;;;;7.27;3.90;;;11.80;99.90;;;;;;5016351;28;20920;-66
2022/10/05 03:35:17;;;;;;;4.70;3.70;;;11.90;99.90;;;;;;5016095;28;20507;-66
2022/10/05 03:37:51;;;;;;;5.10;3.90;;;11.90;99.90;;;;;;5016407;28;20556;-65
2022/10/05 03:40:26;;;;;;;7.60;4.20;;;11.90;99.90;;;;;;5016008;28;20528;-66
2022/10/05 03:43:04;;;;;;;5.40;3.40;;;11.90;99.90;;;;;;5016438;28;20440;-65
2022/10/05 03:45:36;;;;;;;4.13;2.97;;;11.90;99.90;;;;;;5016553;28;20445;-65
2022/10/05 03:48:11;;;;;;;5.03;3.90;;;11.90;99.90;;;;;;5016202;28;20503;-65
2022/10/05 03:50:49;;;;;;;5.10;3.40;;;12.00;99.90;;;;;;5016015;28;20441;-65
2022/10/05 03:53:19;;;;;;;4.00;3.60;;;12.00;99.90;;;;;;5016078;28;20441;-66
2022/10/05 03:55:51;;;;;;;4.43;3.77;;;12.10;99.90;;;;;;5015680;28;20575;-65
2022/10/05 03:58:24;;;;;;;4.37;3.60;;;12.00;99.90;;;;;;5015626;28;20812;-66
2022/10/05 04:00:57;;;;;;;6.57;3.87;;;12.00;99.90;;;;;;5015944;28;20784;-66
2022/10/05 04:03:32;;;;;;;7.23;3.23;;;12.10;99.90;;;;;;5015950;28;20781;-66
2022/10/05 04:06:04;;;;;;;4.40;4.00;;;12.10;99.90;;;;;;5016146;28;20528;-66
2022/10/05 04:08:37;;;;;;;4.90;3.70;;;12.10;99.90;;;;;;5015526;28;20442;-66
2022/10/05 04:11:09;;;;;;;4.40;3.40;;;12.10;99.90;;;;;;5015956;28;20533;-66
2022/10/05 04:13:42;;;;;;;3.93;3.53;;;12.10;99.90;;;;;;5015658;28;20444;-66
2022/10/05 04:16:14;;;;;;;6.10;4.07;;;12.10;99.90;;;;;;5015699;28;20477;-65
2022/10/05 04:18:48;;;;;;;12.87;4.00;;;12.10;99.90;;;;;;5015481;28;20564;-66
2022/10/05 04:21:20;;;;;;;5.20;4.23;;;12.10;99.90;;;;;;5015772;28;20553;-66
2022/10/05 04:23:58;;;;;;;6.37;3.63;;;12.10;99.90;;;;;;5015212;28;20445;-66
2022/10/05 04:26:34;;;;;;;5.40;4.30;;;12.10;99.90;;;;;;5015286;28;20488;-66
2022/10/05 04:29:07;;;;;;;6.13;3.87;;;12.00;99.90;;;;;;5015205;28;20452;-66
2022/10/05 04:31:49;;;;;;;7.13;3.43;;;12.00;99.90;;;;;;5015634;28;20528;-65
2022/10/05 04:34:36;;;;;;;6.57;3.70;;;12.00;99.90;;;;;;5015098;28;20984;-66
2022/10/05 04:37:06;;;;;;;3.90;3.50;;;12.10;99.90;;;;;;5015168;28;20437;-65
2022/10/05 04:39:41;;;;;;;4.10;3.60;;;12.10;99.90;;;;;;5015004;28;20917;-65
2022/10/05 04:42:18;;;;;;;7.37;3.80;;;12.10;99.90;;;;;;5015189;28;20440;-66
2022/10/05 04:45:02;;;;;;;4.40;3.33;;;12.10;99.90;;;;;;5015552;28;20445;-65
2022/10/05 04:47:50;;;;;;;6.87;4.30;;;12.00;99.90;;;;;;5015622;28;20448;-66
2022/10/05 04:50:28;;;;;;;3.93;3.50;;;12.10;99.90;;;;;;5015228;28;20473;-67
2022/10/05 04:53:02;;;;;;;4.90;3.60;;;12.00;99.90;;;;;;5014656;28;20480;-66
2022/10/05 04:55:36;;;;;;;4.33;3.60;;;12.00;99.90;;;;;;5015664;28;20879;-66
2022/10/05 04:58:15;;;;;;;4.97;3.80;;;12.00;99.90;;;;;;5016742;28;20939;-67
2022/10/05 05:00:54;;;;;;;7.23;5.70;;;12.00;99.90;;;;;;5016312;28;20964;-67
2022/10/05 05:03:49;;;;;;;35.57;21.87;;;12.00;99.90;;;;;;5015784;28;20464;-67
2022/10/05 05:06:32;;;;;;;6.37;3.77;;;12.00;99.90;;;;;;4998780;28;20456;-67
2022/10/05 05:09:24;;;;;;;4.83;3.63;;;11.90;99.90;;;;;;5016023;28;20476;-67
2022/10/05 05:12:03;;;;;;;6.53;3.57;;;11.90;99.90;;;;;;5016187;28;20537;-68
2022/10/05 05:15:05;;;;;;;8.60;4.17;;;11.90;99.90;;;;;;5016644;28;20444;-68
2022/10/05 05:17:51;;;;;;;5.33;3.80;;;11.90;99.90;;;;;;5016454;28;20457;-68
2022/10/05 05:20:23;;;;;;;5.43;3.80;;;12.00;99.90;;;;;;5015498;28;20909;-68
2022/10/05 05:22:57;;;;;;;5.97;4.00;;;12.00;99.90;;;;;;5016073;28;20532;-68
2022/10/05 05:25:37;;;;;;;5.53;3.37;;;12.00;99.90;;;;;;5015312;28;20445;-68
2022/10/05 05:28:16;;;;;;;5.20;3.60;;;12.00;99.90;;;;;;5015839;28;20445;-68
2022/10/05 05:30:48;;;;;;;7.00;4.33;;;12.00;99.90;;;;;;5017505;28;20449;-67
2022/10/05 05:33:20;;;;;;;5.70;4.47;;;12.00;99.90;;;;;;5019922;28;20445;-68
2022/10/05 05:36:14;;;;;;;5.97;3.87;;;12.00;99.90;;;;;;5019433;28;20441;-67
2022/10/05 05:38:49;;;;;;;5.77;4.10;;;12.00;99.90;;;;;;5019184;28;20555;-68
2022/10/05 05:41:24;;;;;;;5.77;4.47;;;12.00;99.90;;;;;;5019286;28;20961;-67
2022/10/05 05:44:04;;;;;;;6.37;4.50;;;12.00;99.90;;;;;;5019376;28;20445;-67
2022/10/05 05:46:36;;;;;;;4.33;3.93;;;12.00;99.90;;;;;;5019115;28;20901;-66
2022/10/05 05:49:12;;;;;;;10.13;4.40;;;12.00;99.90;;;;;;5019554;28;20441;-67
2022/10/05 05:51:43;;;;;;;10.43;4.40;;;12.10;99.90;;;;;;5019332;28;20480;-67
2022/10/05 05:54:26;;;;;;;9.30;4.50;;;12.10;99.90;;;;;;5019288;28;20472;-67
2022/10/05 05:57:03;;;;;;;5.50;4.37;;;12.00;99.90;;;;;;5019189;28;20579;-67
2022/10/05 05:59:45;;;;;;;8.07;4.40;;;12.10;99.90;;;;;;5018860;28;20559;-67
2022/10/05 06:02:18;;;;;;;6.43;4.30;;;12.10;99.90;;;;;;5019104;28;20499;-67
2022/10/05 06:04:49;;;;;;;6.70;4.73;;;12.00;99.90;;;;;;5019816;28;20528;-68
2022/10/05 06:07:21;;;;;;;9.00;3.80;;;12.00;99.90;;;;;;5020189;28;20484;-68
2022/10/05 06:09:54;;;;;;;6.30;4.30;;;12.00;99.90;;;;;;5020981;28;20473;-68
2022/10/05 06:12:24;;;;;;;6.37;4.60;;;12.00;99.90;;;;;;5019619;28;20487;-67
2022/10/05 06:14:55;;;;;;;6.27;4.13;;;12.10;99.90;;;;;;5019198;28;20523;-68
2022/10/05 06:17:27;;;;;;;6.30;4.43;;;12.10;99.90;;;;;;5019106;28;20531;-67
2022/10/05 06:19:57;;;;;;;8.10;4.80;;;12.20;99.90;;;;;;5019640;28;20801;-67
2022/10/05 06:22:30;;;;;;;4.77;3.87;;;12.20;99.90;;;;;;5019388;28;20456;-67
2022/10/05 06:25:09;;;;;;;7.00;4.40;;;12.20;99.90;;;;;;5018519;28;20445;-67
2022/10/05 06:27:37;;;;;;;5.77;4.20;;;12.20;99.90;;;;;;5020282;28;20473;-67
2022/10/05 06:30:12;;;;;;;5.53;4.20;;;12.30;99.90;;;;;;5019201;28;20811;-67
2022/10/05 06:33:04;;;;;;;6.10;4.63;;;12.30;99.90;;;;;;5019461;28;20529;-67
2022/10/05 06:35:45;;;;;;;6.43;4.10;;;12.40;99.90;;;;;;5019114;28;20469;-67
2022/10/05 06:38:24;;;;;;;8.00;4.20;;;12.40;99.90;;;;;;5019417;28;20452;-67
2022/10/05 06:41:09;;;;;;;6.87;4.67;;;12.50;99.90;;;;;;5019095;28;20441;-67
2022/10/05 06:43:53;;;;;;;6.13;4.33;;;12.50;99.90;;;;;;5018007;28;20505;-67
2022/10/05 06:46:26;;;;;;;8.63;4.77;;;12.50;99.90;;;;;;5018722;28;20477;-67
2022/10/05 06:49:15;;;;;;;8.23;3.87;;;12.60;99.90;;;;;;5018529;28;20473;-67
2022/10/05 06:51:51;;;;;;;5.80;3.80;;;12.60;99.90;;;;;;5017786;28;20498;-67
2022/10/05 06:54:41;;;;;;;7.57;3.97;;;12.60;99.90;;;;;;5017728;28;20889;-67
2022/10/05 06:57:19;;;;;;;9.63;4.30;;;12.70;99.90;;;;;;5017837;28;20539;-67
2022/10/05 06:59:53;;;;;;;7.67;4.53;;;12.80;99.90;;;;;;5018143;28;20469;-67
2022/10/05 07:02:25;;;;;;;5.67;4.23;;;12.80;99.90;;;;;;5018095;28;20441;-67
2022/10/05 07:05:11;;;;;;;8.00;4.33;;;12.90;99.90;;;;;;5018558;28;20532;-68
2022/10/05 07:07:48;;;;;;;7.50;4.13;;;12.90;99.90;;;;;;5018786;28;20445;-68
2022/10/05 07:10:27;;;;;;;7.13;4.57;;;12.90;99.90;;;;;;5017924;28;20444;-66
2022/10/05 07:13:10;;;;;;;7.40;5.47;;;12.90;99.90;;;;;;5017318;28;20921;-68
2022/10/05 07:15:52;;;;;;;10.60;4.77;;;13.00;99.90;;;;;;5017576;28;20568;-67
2022/10/05 07:18:39;;;;;;;6.43;5.40;;;13.00;99.90;;;;;;5017940;28;20452;-68
2022/10/05 07:21:13;;;;;;;4.27;3.30;;;13.00;99.90;;;;;;5017857;28;20461;-67
2022/10/05 07:23:57;;;;;;;5.20;3.90;;;13.10;99.90;;;;;;5017909;28;20519;-68
2022/10/05 07:26:31;;;;;;;4.67;3.77;;;13.00;99.90;;;;;;5019125;28;20472;-67
2022/10/05 07:29:18;;;;;;;6.73;3.90;;;13.00;99.90;;;;;;5018723;28;20499;-67
2022/10/05 07:31:49;;;;;;;6.03;3.70;;;13.00;99.90;;;;;;5018400;28;20516;-68
2022/10/05 07:34:27;;;;;;;8.67;4.13;;;13.10;99.90;;;;;;5018615;28;20469;-66
2022/10/05 07:39:56;;;;;;;10.50;4.23;;;13.20;99.90;;;;;;5018393;28;20571;-66
2022/10/05 07:42:37;;;;;;;7.57;3.80;;;13.30;99.90;;;;;;5017644;28;20511;-67
2022/10/05 07:45:14;;;;;;;4.73;3.70;;;13.40;99.90;;;;;;5017526;28;20448;-67
2022/10/05 07:47:47;;;;;;;5.90;3.90;;;13.60;99.90;;;;;;5016807;28;20849;-66
2022/10/05 07:50:22;;;;;;;5.83;3.90;;;13.70;99.90;;;;;;5016799;28;20546;-67
2022/10/05 07:52:55;;;;;;;5.33;3.60;;;13.80;99.90;;;;;;5017627;28;20721;-67
2022/10/05 07:55:24;;;;;;;5.43;3.60;;;13.80;99.90;;;;;;5017432;28;20630;-67
2022/10/05 07:58:02;;;;;;;4.30;3.53;;;13.80;99.90;;;;;;5019568;28;20527;-67
2022/10/05 08:00:48;;;;;;;5.60;3.93;;;13.90;99.90;;;;;;5018884;28;20515;-68
2022/10/05 08:03:23;;;;;;;4.90;3.63;;;13.90;99.90;;;;;;5016996;28;20446;-67
2022/10/05 08:05:50;;;;;;;3.77;3.30;;;14.00;99.90;;;;;;5017693;28;20815;-67
2022/10/05 08:08:24;;;;;;;7.60;3.10;;;14.10;99.90;;;;;;5016825;28;20461;-66
2022/10/05 08:10:59;;;;;;;6.80;3.53;;;14.10;99.90;;;;;;5017038;28;20504;-67
2022/10/05 08:13:34;;;;;;;5.70;3.27;;;14.20;99.90;;;;;;5017764;28;20463;-66
2022/10/05 08:16:11;;;;;;;5.70;3.40;;;14.20;99.90;;;;;;5017237;28;20499;-67
2022/10/05 08:18:50;;;;;;;6.70;4.07;;;14.30;99.90;;;;;;5016863;28;20472;-67
2022/10/05 08:21:24;;;;;;;4.47;3.60;;;14.40;99.90;;;;;;5016281;28;20917;-67
2022/10/05 08:23:56;;;;;;;3.43;3.13;;;14.50;99.90;;;;;;5017329;28;20548;-67
2022/10/05 08:26:31;;;;;;;5.23;3.23;;;14.60;99.90;;;;;;5017853;28;20781;-68
2022/10/05 08:29:13;;;;;;;9.20;3.37;;;14.60;99.90;;;;;;5017321;28;20487;-67
2022/10/05 08:31:43;;;;;;;4.43;3.00;;;14.70;99.90;;;;;;5016757;28;20595;-67
2022/10/05 08:34:21;;;;;;;5.13;3.23;;;14.70;99.90;;;;;;5017352;28;20531;-67
2022/10/05 08:36:58;;;;;;;9.33;3.33;;;14.70;99.90;;;;;;5018893;28;20862;-67
2022/10/05 08:39:30;;;;;;;5.93;3.00;;;14.80;99.90;;;;;;5017337;28;20465;-67
2022/10/05 08:42:38;;;;;;;7.10;3.37;;;14.80;99.90;;;;;;5017108;28;20485;-69
2022/10/05 08:45:42;;;;;;;3.30;3.00;;;14.90;99.90;;;;;;5017462;28;20445;-67
2022/10/05 08:48:42;;;;;;;4.90;3.10;;;14.90;99.90;;;;;;5016610;28;20519;-67
2022/10/05 08:51:32;;;;;;;4.53;3.20;;;14.90;99.90;;;;;;5016564;28;20430;-67
2022/10/05 08:54:58;;;;;;;4.97;3.60;;;15.00;99.90;;;;;;5013931;28;20476;-67
2022/10/05 08:57:58;;;;;;;4.30;3.37;;;15.10;99.90;;;;;;4957033;29;20983;-67
2022/10/05 09:00:32;;;;;;;9.37;3.10;;;15.20;99.90;;;;;;4955782;29;20474;-67
2022/10/05 09:03:19;;;;;;;3.77;3.37;;;15.20;99.90;;;;;;5011452;28;20794;-67
2022/10/05 09:06:17;;;;;;;6.83;2.83;;;15.30;99.90;;;;;;5016346;28;20511;-67
2022/10/05 09:09:35;;;;;;;3.87;3.50;;;15.40;99.90;;;;;;5016726;28;20449;-67
2022/10/05 09:12:22;;;;;;;3.40;3.10;;;15.50;99.90;;;;;;4970795;28;20465;-67
2022/10/05 09:14:59;;;;;;;4.13;2.77;;;15.60;99.90;;;;;;5016386;28;20447;-67
2022/10/05 09:18:02;;;;;;;4.47;3.20;;;15.60;99.90;;;;;;5016019;28;20849;-67
2022/10/05 09:20:36;;;;;;;4.53;2.70;;;15.70;99.90;;;;;;5016459;28;20579;-67
2022/10/05 09:23:27;;;;;;;10.83;4.13;;;15.70;99.90;;;;;;5017609;28;20473;-65
2022/10/05 09:25:59;;;;;;;5.80;3.77;;;15.80;99.90;;;;;;5017489;28;20518;-68
2022/10/05 09:28:34;;;;;;;4.27;3.30;;;15.80;99.90;;;;;;5016406;28;20445;-67
2022/10/05 09:31:21;;;;;;;4.40;2.90;;;15.80;99.90;;;;;;5015936;28;20444;-67
2022/10/05 09:34:10;;;;;;;5.77;3.60;;;15.80;99.90;;;;;;5017067;28;20483;-66
2022/10/05 09:37:19;;;;;;;8.23;3.30;;;15.80;99.90;;;;;;5016877;28;20445;-67
2022/10/05 09:40:18;;;;;;;4.43;2.97;;;15.90;99.90;;;;;;5015196;28;20481;-67
2022/10/05 09:43:01;;;;;;;5.27;3.80;;;16.10;99.90;;;;;;5016206;28;20777;-67
2022/10/05 09:46:02;;;;;;;4.93;3.53;;;16.20;99.90;;;;;;5017143;28;20485;-67
2022/10/05 09:49:02;;;;;;;6.63;3.20;;;16.30;99.90;;;;;;4982870;28;20853;-68
2022/10/05 09:51:50;;;;;;;8.97;3.20;;;16.50;99.90;;;;;;5016163;28;20540;-68
2022/10/05 09:55:00;;;;;;;6.70;3.93;;;16.50;99.90;;;;;;5016683;28;20503;-68
2022/10/05 09:58:02;;;;;;;3.73;3.30;;;16.50;99.90;;;;;;5016916;28;20532;-67
2022/10/05 10:00:40;;;;;;;4.57;3.20;;;16.50;99.90;;;;;;5017359;28;20574;-68
2022/10/05 10:03:55;;;;;;;3.70;3.30;;;16.50;99.90;;;;;;5016674;28;20816;-68
2022/10/05 10:06:43;;;;;;;4.23;3.80;;;16.50;99.90;;;;;;4989514;28;20461;-67
2022/10/05 10:09:30;;;;;;;5.53;3.97;;;16.50;99.90;;;;;;5016908;28;20799;-68
2022/10/05 10:12:31;;;;;;;4.50;3.67;;;16.50;99.90;;;;;;5016017;28;20449;-67
2022/10/05 10:15:34;;;;;;;6.00;3.50;;;16.40;99.90;;;;;;5016068;28;20531;-67
2022/10/05 10:18:32;;;;;;;6.03;3.37;;;16.40;99.90;;;;;;5018382;28;20453;-67
2022/10/05 10:21:24;;;;;;;4.00;3.30;;;16.40;99.90;;;;;;4994171;28;20567;-67
2022/10/05 10:24:13;;;;;;;7.63;4.33;;;16.50;99.90;;;;;;5002991;28;20522;-67
2022/10/05 10:27:19;;;;;;;4.57;3.50;;;16.50;99.90;;;;;;5019865;28;20712;-68
2022/10/05 10:30:23;;;;;;;5.40;3.40;;;16.50;99.90;;;;;;5007886;28;20867;-68
2022/10/05 10:33:14;;;;;;;6.97;3.90;;;16.60;99.90;;;;;;5019709;28;20445;-68
2022/10/05 10:35:50;;;;;;;5.33;3.53;;;16.70;99.90;;;;;;5019445;28;20441;-67
2022/10/05 10:38:44;;;;;;;4.50;3.33;;;16.80;99.90;;;;;;5020757;28;20487;-68
2022/10/05 10:41:40;;;;;;;5.03;3.30;;;17.00;99.90;;;;;;5022719;28;20783;-68
2022/10/05 10:44:46;;;;;;;3.30;3.00;;;17.10;99.90;;;;;;5021672;28;20527;-68
2022/10/05 10:47:47;;;;;;;6.30;3.77;;;17.30;99.90;;;;;;5014235;28;20449;-67
2022/10/05 10:51:03;;;;;;;3.73;3.37;;;17.40;99.90;;;;;;5019872;28;20550;-67
2022/10/05 10:53:56;;;;;;;8.83;3.40;;;17.50;99.90;;;;;;4984898;28;20456;-67
2022/10/05 10:56:34;;;;;;;9.03;3.77;;;17.50;99.90;;;;;;5019626;28;20481;-67
2022/10/05 10:59:26;;;;;;;4.90;3.57;;;17.50;99.90;;;;;;5018853;28;20460;-68
2022/10/05 11:02:19;;;;;;;3.60;3.30;;;17.60;99.90;;;;;;5019508;28;20499;-67
2022/10/05 11:05:11;;;;;;;8.03;3.93;;;17.70;99.90;;;;;;5018880;28;20524;-67
2022/10/05 11:08:02;;;;;;;5.80;3.47;;;17.80;99.90;;;;;;5018963;28;20456;-67
2022/10/05 11:10:52;;;;;;;5.50;3.20;;;17.80;99.90;;;;;;5018505;28;20445;-67
2022/10/05 11:14:01;;;;;;;4.30;3.20;;;17.80;99.90;;;;;;5019777;28;20528;-66
2022/10/05 11:17:02;;;;;;;5.97;3.70;;;17.70;99.90;;;;;;5012826;28;20543;-68
2022/10/05 11:19:46;;;;;;;4.77;3.40;;;17.90;99.90;;;;;;5020682;28;20468;-68
2022/10/05 11:22:31;;;;;;;4.53;3.40;;;18.10;99.90;;;;;;5019975;28;20536;-68
2022/10/05 11:25:19;;;;;;;5.80;3.60;;;18.40;99.90;;;;;;5019332;28;20479;-66
2022/10/05 11:28:08;;;;;;;7.33;4.60;;;18.70;99.90;;;;;;5019682;28;20449;-67
2022/10/05 11:31:09;;;;;;;4.50;3.80;;;19.00;99.90;;;;;;5019880;28;20437;-68
2022/10/05 11:34:16;;;;;;;4.50;3.60;;;19.10;99.90;;;;;;5019382;28;20437;-69
2022/10/05 11:37:15;;;;;;;4.53;3.50;;;19.30;99.90;;;;;;4971390;28;20955;-68
2022/10/05 11:40:13;;;;;;;4.40;3.80;;;19.50;99.90;;;;;;5018442;28;20437;-68
2022/10/05 11:43:09;;;;;;;6.60;3.23;;;19.50;99.90;;;;;;5019059;28;20450;-68
2022/10/05 11:45:55;;;;;;;7.93;3.70;;;19.60;99.90;;;;;;5019101;28;20500;-67
2022/10/05 11:49:00;;;;;;;5.97;3.37;;;19.60;99.90;;;;;;5019622;28;20441;-68
2022/10/05 11:51:44;;;;;;;4.47;3.33;;;19.90;99.90;;;;;;5019045;28;20437;-67
2022/10/05 11:54:25;;;;;;;7.67;3.20;;;20.50;99.90;;;;;;5018269;28;20441;-67
2022/10/05 11:56:55;;;;;;;3.47;3.17;;;20.60;99.90;;;;;;5017623;28;20519;-67
2022/10/05 11:59:30;;;;;;;4.10;3.50;;;20.50;99.90;;;;;;5017968;28;20441;-67
2022/10/05 12:02:06;;;;;;;5.67;3.53;;;20.40;99.90;;;;;;5017949;28;20798;-67
2022/10/05 12:04:41;;;;;;;10.83;3.40;;;20.30;99.90;;;;;;5017037;28;20442;-67
2022/10/05 12:07:16;;;;;;;6.20;3.10;;;20.10;99.90;;;;;;5017081;28;20477;-67
2022/10/05 12:10:16;;;;;;;5.13;3.43;;;20.00;99.90;;;;;;5017998;28;20945;-68
2022/10/05 12:12:56;;;;;;;3.90;3.40;;;20.10;99.90;;;;;;5017891;28;20824;-68
2022/10/05 12:15:28;;;;;;;4.47;3.47;;;20.60;99.90;;;;;;5017270;28;20757;-68
2022/10/05 12:18:00;;;;;;;5.40;2.80;;;21.40;99.90;;;;;;5016542;28;20507;-67
2022/10/05 12:20:32;;;;;;;3.17;2.87;;;22.50;99.90;;;;;;5015600;28;20527;-70
2022/10/05 12:23:07;;;;;;;3.67;3.07;;;23.80;99.90;;;;;;5015546;28;20525;-70
2022/10/05 12:25:38;;;;;;;3.73;3.00;;;24.80;99.90;;;;;;5015505;28;20791;-70
2022/10/05 12:28:11;;;;;;;5.10;3.30;;;25.70;99.90;;;;;;5015457;28;20527;-70
2022/10/05 12:31:11;;;;;;;3.07;2.70;;;26.30;99.90;;;;;;5015298;28;20837;-70
2022/10/05 12:33:46;;;;;;;3.00;2.70;;;26.90;99.90;;;;;;5014641;28;20535;-70
2022/10/05 12:36:17;;;;;;;3.60;2.60;;;27.50;99.90;;;;;;5014886;28;20460;-70
2022/10/05 12:38:53;;;;;;;2.93;2.50;;;27.80;99.90;;;;;;5015148;28;20528;-70
2022/10/05 12:41:27;;;;;;;4.93;3.10;;;27.50;99.10;;;;;;5014395;28;20750;-71
2022/10/05 12:44:12;;;;;;;3.20;2.80;;;27.50;98.90;;;;;;5014892;28;20481;-70
2022/10/05 12:46:49;;;;;;;3.67;2.50;;;27.90;97.40;;;;;;5015091;28;20816;-70
2022/10/05 12:49:36;;;;;;;4.33;2.80;;;28.00;95.50;;;;;;5015505;28;20499;-70
2022/10/05 12:52:06;;;;;;;2.60;2.33;;;27.70;94.40;;;;;;5014913;28;20437;-70
2022/10/05 12:54:44;;;;;;;3.67;2.70;;;27.80;94.40;;;;;;5014384;28;20499;-70
2022/10/05 12:57:21;;;;;;;3.40;2.30;;;27.50;92.40;;;;;;5014843;28;20515;-70
2022/10/05 12:59:56;;;;;;;2.90;2.20;;;27.20;92.30;;;;;;5015384;28;20560;-70
2022/10/05 13:02:33;;;;;;;2.73;2.53;;;27.50;91.70;;;;;;5014928;28;20598;-71
2022/10/05 13:05:17;;;;;;;4.17;2.67;;;27.60;89.90;;;;;;5015077;28;20444;-70
2022/10/05 13:08:02;;;;;;;4.70;2.77;;;27.50;89.50;;;;;;5015119;28;20897;-70
2022/10/05 13:10:35;;;;;;;2.53;2.33;;;27.40;87.70;;;;;;5014932;28;20442;-70
2022/10/05 13:13:26;;;;;;;2.80;2.43;;;27.30;88.00;;;;;;5015375;28;20513;-70
2022/10/05 13:15:59;;;;;;;2.73;2.30;;;27.30;87.50;;;;;;5015034;28;20445;-68
2022/10/05 13:18:34;;;;;;;3.23;2.40;;;27.20;85.80;;;;;;5014951;28;20924;-68
2022/10/05 13:21:06;;;;;;;2.80;2.30;;;27.20;87.80;;;;;;5014858;28;20469;-69
2022/10/05 13:23:42;;;;;;;2.30;2.10;;;26.50;87.70;;;;;;5014848;28;20833;-69
2022/10/05 13:26:15;;;;;;;4.23;2.43;;;26.60;86.90;;;;;;5014686;28;20441;-68
2022/10/05 13:28:46;;;;;;;2.17;1.93;;;26.40;88.00;;;;;;5014856;28;20511;-69
2022/10/05 13:31:18;;;;;;;5.10;2.57;;;26.40;90.10;;;;;;5014877;28;20441;-69
2022/10/05 13:34:01;;;;;;;2.80;2.37;;;27.00;88.30;;;;;;5014298;28;20468;-68
2022/10/05 13:36:38;;;;;;;4.67;2.30;;;27.30;86.10;;;;;;5014741;28;20472;-68
2022/10/05 13:39:15;;;;;;;4.60;2.63;;;27.40;84.40;;;;;;5014386;28;20452;-68
2022/10/05 13:41:53;;;;;;;3.03;2.27;;;27.60;82.70;;;;;;5014187;28;20519;-68
2022/10/05 13:44:27;;;;;;;2.43;2.23;;;27.80;82.70;;;;;;5014812;28;20446;-69
2022/10/05 13:47:01;;;;;;;5.00;2.03;;;28.00;81.00;;;;;;5014914;28;20506;-68
2022/10/05 13:49:37;;;;;;;5.17;2.47;;;28.00;79.20;;;;;;5014044;28;20489;-68
2022/10/05 13:52:25;;;;;;;3.50;2.30;;;27.70;79.00;;;;;;5016669;28;20472;-68
2022/10/05 13:55:00;;;;;;;2.93;2.30;;;27.50;80.00;;;;;;5017623;28;20586;-69
2022/10/05 13:57:48;;;;;;;2.10;2.00;;;27.40;79.80;;;;;;5017832;28;20440;-69
2022/10/05 14:00:17;;;;;;;2.33;2.13;;;27.60;80.40;;;;;;5017626;28;21003;-68
2022/10/05 14:02:47;;;;;;;3.30;2.60;;;27.70;77.80;;;;;;5017688;28;20473;-69
2022/10/05 14:05:17;;;;;;;6.10;2.50;;;27.50;78.50;;;;;;5017469;28;20539;-69
2022/10/05 14:07:52;;;;;;;2.97;2.37;;;27.70;77.10;;;;;;5017757;28;20460;-68
2022/10/05 14:10:33;;;;;;;3.37;2.23;;;27.50;77.50;;;;;;5017876;28;20955;-69
2022/10/05 14:13:02;;;;;;;2.77;2.03;;;27.20;79.30;;;;;;5017609;28;20441;-70
2022/10/05 14:15:31;;;;;;;3.00;2.23;;;27.10;78.50;;;;;;5017593;28;20925;-68
2022/10/05 14:18:00;;;;;;;4.60;2.23;;;26.90;77.60;;;;;;5017565;28;20858;-68
2022/10/05 14:20:33;;;;;;;3.70;2.00;;;26.60;78.00;;;;;;5017961;28;20543;-69
2022/10/05 14:23:03;;;;;;;3.67;2.60;;;26.40;78.80;;;;;;5017871;28;20445;-69
2022/10/05 14:25:31;;;;;;;2.63;2.43;;;26.50;78.60;;;;;;5017743;28;20839;-68
2022/10/05 14:28:02;;;;;;;2.80;2.40;;;26.20;78.50;;;;;;5017288;28;20464;-69
2022/10/05 14:30:31;;;;;;;3.53;2.40;;;26.10;78.40;;;;;;5017900;28;20519;-69